sensor_id;sensor_type;location;lat;lon;timestamp;P1;durP1;ratioP1;P2;durP2;ratioP2
18082;SDS011;9168;51.194;6.840;2023-06-14T00:00:03;28.75;;;7.90;;
18082;SDS011;9168;51.194;6.840;2023-06-14T00:02:32;24.05;;;7.55;;
18082;SDS011;9168;51.194;6.840;2023-06-14T00:04:59;25.13;;;7.80;;
18082;SDS011;9168;51.194;6.840;2023-06-14T00:07:33;19.50;;;7.28;;
18082;SDS011;9168;51.194;6.840;2023-06-14T00:10:01;26.83;;;10.57;;
18082;SDS011;9168;51.194;6.840;2023-06-14T00:12:29;33.95;;;12.70;;
18082;SDS011;9168;51.194;6.840;2023-06-14T00:14:58;30.15;;;11.02;;
18082;SDS011;9168;51.194;6.840;2023-06-14T00:17:26;22.15;;;8.43;;
18082;SDS011;9168;51.194;6.840;2023-06-14T00:19:55;20.92;;;8.07;;
18082;SDS011;9168;51.194;6.840;2023-06-14T00:22:22;17.17;;;7.30;;
18082;SDS011;9168;51.194;6.840;2023-06-14T00:24:50;17.55;;;7.45;;
18082;SDS011;9168;51.194;6.840;2023-06-14T00:27:17;14.88;;;6.53;;
18082;SDS011;9168;51.194;6.840;2023-06-14T00:29:44;11.10;;;6.70;;
18082;SDS011;9168;51.194;6.840;2023-06-14T00:32:12;15.35;;;7.05;;
18082;SDS011;9168;51.194;6.840;2023-06-14T00:34:39;13.30;;;6.88;;
18082;SDS011;9168;51.194;6.840;2023-06-14T00:37:06;15.85;;;6.75;;
18082;SDS011;9168;51.194;6.840;2023-06-14T00:39:33;13.43;;;6.75;;
18082;SDS011;9168;51.194;6.840;2023-06-14T00:41:59;14.30;;;6.82;;
18082;SDS011;9168;51.194;6.840;2023-06-14T00:44:26;11.20;;;6.13;;
18082;SDS011;9168;51.194;6.840;2023-06-14T00:46:53;13.10;;;6.75;;
18082;SDS011;9168;51.194;6.840;2023-06-14T00:49:21;16.27;;;6.80;;
18082;SDS011;9168;51.194;6.840;2023-06-14T00:51:49;14.00;;;7.00;;
18082;SDS011;9168;51.194;6.840;2023-06-14T00:54:16;10.05;;;6.05;;
18082;SDS011;9168;51.194;6.840;2023-06-14T00:56:43;11.55;;;6.35;;
18082;SDS011;9168;51.194;6.840;2023-06-14T00:59:10;13.35;;;6.50;;
18082;SDS011;9168;51.194;6.840;2023-06-14T01:01:37;15.60;;;6.75;;
18082;SDS011;9168;51.194;6.840;2023-06-14T01:04:05;14.23;;;6.57;;
18082;SDS011;9168;51.194;6.840;2023-06-14T01:06:36;12.35;;;5.75;;
18082;SDS011;9168;51.194;6.840;2023-06-14T01:09:09;11.15;;;6.07;;
18082;SDS011;9168;51.194;6.840;2023-06-14T01:11:47;18.00;;;6.25;;
18082;SDS011;9168;51.194;6.840;2023-06-14T01:14:20;13.85;;;7.38;;
18082;SDS011;9168;51.194;6.840;2023-06-14T01:16:47;13.88;;;6.60;;
18082;SDS011;9168;51.194;6.840;2023-06-14T01:19:18;13.75;;;6.63;;
18082;SDS011;9168;51.194;6.840;2023-06-14T01:21:49;10.88;;;6.25;;
18082;SDS011;9168;51.194;6.840;2023-06-14T01:24:17;11.35;;;6.65;;
18082;SDS011;9168;51.194;6.840;2023-06-14T01:26:48;17.23;;;7.13;;
18082;SDS011;9168;51.194;6.840;2023-06-14T01:29:20;14.43;;;6.85;;
18082;SDS011;9168;51.194;6.840;2023-06-14T01:31:48;11.63;;;6.68;;
18082;SDS011;9168;51.194;6.840;2023-06-14T01:34:16;18.67;;;6.40;;
18082;SDS011;9168;51.194;6.840;2023-06-14T01:36:43;11.50;;;6.72;;
18082;SDS011;9168;51.194;6.840;2023-06-14T01:39:11;13.20;;;6.55;;
18082;SDS011;9168;51.194;6.840;2023-06-14T01:41:41;14.35;;;6.95;;
18082;SDS011;9168;51.194;6.840;2023-06-14T01:44:11;18.48;;;6.82;;
18082;SDS011;9168;51.194;6.840;2023-06-14T01:46:40;10.68;;;6.30;;
18082;SDS011;9168;51.194;6.840;2023-06-14T01:49:08;18.10;;;6.20;;
18082;SDS011;9168;51.194;6.840;2023-06-14T01:51:36;14.25;;;6.75;;
18082;SDS011;9168;51.194;6.840;2023-06-14T01:54:03;12.18;;;6.93;;
18082;SDS011;9168;51.194;6.840;2023-06-14T01:56:30;11.15;;;6.63;;
18082;SDS011;9168;51.194;6.840;2023-06-14T01:58:58;11.32;;;6.32;;
18082;SDS011;9168;51.194;6.840;2023-06-14T02:01:26;11.98;;;6.50;;
18082;SDS011;9168;51.194;6.840;2023-06-14T02:03:53;14.00;;;6.60;;
18082;SDS011;9168;51.194;6.840;2023-06-14T02:06:20;14.95;;;6.93;;
18082;SDS011;9168;51.194;6.840;2023-06-14T02:08:46;11.30;;;6.40;;
18082;SDS011;9168;51.194;6.840;2023-06-14T02:11:13;11.80;;;6.63;;
18082;SDS011;9168;51.194;6.840;2023-06-14T02:13:40;10.30;;;6.20;;
18082;SDS011;9168;51.194;6.840;2023-06-14T02:16:08;16.48;;;6.30;;
18082;SDS011;9168;51.194;6.840;2023-06-14T02:18:35;12.70;;;6.35;;
18082;SDS011;9168;51.194;6.840;2023-06-14T02:21:02;14.65;;;5.72;;
18082;SDS011;9168;51.194;6.840;2023-06-14T02:23:29;15.13;;;6.30;;
18082;SDS011;9168;51.194;6.840;2023-06-14T02:25:57;15.82;;;5.93;;
18082;SDS011;9168;51.194;6.840;2023-06-14T02:28:24;10.48;;;6.05;;
18082;SDS011;9168;51.194;6.840;2023-06-14T02:30:50;12.05;;;7.10;;
18082;SDS011;9168;51.194;6.840;2023-06-14T02:33:19;13.13;;;6.13;;
18082;SDS011;9168;51.194;6.840;2023-06-14T02:35:47;12.70;;;6.72;;
18082;SDS011;9168;51.194;6.840;2023-06-14T02:38:13;12.88;;;6.40;;
18082;SDS011;9168;51.194;6.840;2023-06-14T02:40:40;12.15;;;6.88;;
18082;SDS011;9168;51.194;6.840;2023-06-14T02:43:08;14.32;;;6.85;;
18082;SDS011;9168;51.194;6.840;2023-06-14T02:45:34;11.93;;;6.70;;
18082;SDS011;9168;51.194;6.840;2023-06-14T02:48:01;11.65;;;6.28;;
18082;SDS011;9168;51.194;6.840;2023-06-14T02:50:30;13.60;;;6.70;;
18082;SDS011;9168;51.194;6.840;2023-06-14T02:52:57;11.52;;;6.95;;
18082;SDS011;9168;51.194;6.840;2023-06-14T02:55:24;16.67;;;6.85;;
18082;SDS011;9168;51.194;6.840;2023-06-14T02:57:51;14.32;;;6.50;;
18082;SDS011;9168;51.194;6.840;2023-06-14T03:00:18;12.48;;;7.13;;
18082;SDS011;9168;51.194;6.840;2023-06-14T03:02:45;12.80;;;6.32;;
18082;SDS011;9168;51.194;6.840;2023-06-14T03:05:13;14.48;;;6.53;;
18082;SDS011;9168;51.194;6.840;2023-06-14T03:07:42;13.10;;;6.97;;
18082;SDS011;9168;51.194;6.840;2023-06-14T03:10:10;13.13;;;6.80;;
18082;SDS011;9168;51.194;6.840;2023-06-14T03:12:38;12.85;;;6.88;;
18082;SDS011;9168;51.194;6.840;2023-06-14T03:15:05;20.35;;;7.85;;
18082;SDS011;9168;51.194;6.840;2023-06-14T03:17:32;14.93;;;6.60;;
18082;SDS011;9168;51.194;6.840;2023-06-14T03:20:00;10.15;;;6.80;;
18082;SDS011;9168;51.194;6.840;2023-06-14T03:22:28;10.82;;;6.50;;
18082;SDS011;9168;51.194;6.840;2023-06-14T03:24:57;11.70;;;6.90;;
18082;SDS011;9168;51.194;6.840;2023-06-14T03:27:24;18.90;;;6.32;;
18082;SDS011;9168;51.194;6.840;2023-06-14T03:29:53;12.45;;;6.22;;
18082;SDS011;9168;51.194;6.840;2023-06-14T03:32:20;13.88;;;6.38;;
18082;SDS011;9168;51.194;6.840;2023-06-14T03:34:47;14.23;;;6.45;;
18082;SDS011;9168;51.194;6.840;2023-06-14T03:37:16;11.48;;;5.97;;
18082;SDS011;9168;51.194;6.840;2023-06-14T03:39:42;10.10;;;5.97;;
18082;SDS011;9168;51.194;6.840;2023-06-14T03:42:13;14.25;;;6.55;;
18082;SDS011;9168;51.194;6.840;2023-06-14T03:44:40;15.63;;;6.47;;
18082;SDS011;9168;51.194;6.840;2023-06-14T03:47:07;14.57;;;7.03;;
18082;SDS011;9168;51.194;6.840;2023-06-14T03:49:34;15.13;;;6.60;;
18082;SDS011;9168;51.194;6.840;2023-06-14T03:52:02;16.15;;;6.93;;
18082;SDS011;9168;51.194;6.840;2023-06-14T03:54:29;15.95;;;6.82;;
18082;SDS011;9168;51.194;6.840;2023-06-14T03:56:57;20.60;;;7.28;;
18082;SDS011;9168;51.194;6.840;2023-06-14T03:59:26;25.92;;;6.97;;
18082;SDS011;9168;51.194;6.840;2023-06-14T04:01:53;14.25;;;6.80;;
18082;SDS011;9168;51.194;6.840;2023-06-14T04:04:21;21.65;;;7.05;;
18082;SDS011;9168;51.194;6.840;2023-06-14T04:06:53;17.45;;;7.20;;
18082;SDS011;9168;51.194;6.840;2023-06-14T04:09:21;15.57;;;6.78;;
18082;SDS011;9168;51.194;6.840;2023-06-14T04:11:49;23.83;;;7.47;;
18082;SDS011;9168;51.194;6.840;2023-06-14T04:14:16;22.77;;;7.85;;
18082;SDS011;9168;51.194;6.840;2023-06-14T04:16:45;20.92;;;6.97;;
18082;SDS011;9168;51.194;6.840;2023-06-14T04:19:12;20.73;;;7.68;;
18082;SDS011;9168;51.194;6.840;2023-06-14T04:21:39;23.15;;;7.63;;
18082;SDS011;9168;51.194;6.840;2023-06-14T04:24:06;23.83;;;7.75;;
18082;SDS011;9168;51.194;6.840;2023-06-14T04:26:37;24.00;;;7.65;;
18082;SDS011;9168;51.194;6.840;2023-06-14T04:29:05;18.77;;;7.15;;
18082;SDS011;9168;51.194;6.840;2023-06-14T04:31:32;22.92;;;7.30;;
18082;SDS011;9168;51.194;6.840;2023-06-14T04:34:00;25.17;;;7.72;;
18082;SDS011;9168;51.194;6.840;2023-06-14T04:36:30;13.38;;;7.25;;
18082;SDS011;9168;51.194;6.840;2023-06-14T04:38:59;17.17;;;7.07;;
18082;SDS011;9168;51.194;6.840;2023-06-14T04:41:28;22.27;;;7.28;;
18082;SDS011;9168;51.194;6.840;2023-06-14T04:43:56;15.45;;;6.63;;
18082;SDS011;9168;51.194;6.840;2023-06-14T04:46:26;13.13;;;6.72;;
18082;SDS011;9168;51.194;6.840;2023-06-14T04:48:53;14.73;;;6.53;;
18082;SDS011;9168;51.194;6.840;2023-06-14T04:51:23;12.23;;;5.55;;
18082;SDS011;9168;51.194;6.840;2023-06-14T04:53:54;15.73;;;5.78;;
18082;SDS011;9168;51.194;6.840;2023-06-14T04:56:23;10.02;;;5.25;;
18082;SDS011;9168;51.194;6.840;2023-06-14T04:58:51;9.60;;;5.03;;
18082;SDS011;9168;51.194;6.840;2023-06-14T05:01:22;13.52;;;4.75;;
18082;SDS011;9168;51.194;6.840;2023-06-14T05:03:54;10.27;;;5.05;;
18082;SDS011;9168;51.194;6.840;2023-06-14T05:06:23;17.52;;;5.65;;
18082;SDS011;9168;51.194;6.840;2023-06-14T05:08:49;15.68;;;4.95;;
18082;SDS011;9168;51.194;6.840;2023-06-14T05:11:16;14.93;;;4.80;;
18082;SDS011;9168;51.194;6.840;2023-06-14T05:13:43;9.50;;;5.03;;
18082;SDS011;9168;51.194;6.840;2023-06-14T05:16:12;7.63;;;4.45;;
18082;SDS011;9168;51.194;6.840;2023-06-14T05:18:40;12.50;;;4.75;;
18082;SDS011;9168;51.194;6.840;2023-06-14T05:21:08;17.45;;;4.85;;
18082;SDS011;9168;51.194;6.840;2023-06-14T05:23:36;13.07;;;5.47;;
18082;SDS011;9168;51.194;6.840;2023-06-14T05:26:03;16.65;;;5.68;;
18082;SDS011;9168;51.194;6.840;2023-06-14T05:28:31;17.70;;;5.10;;
18082;SDS011;9168;51.194;6.840;2023-06-14T05:30:58;17.30;;;4.95;;
18082;SDS011;9168;51.194;6.840;2023-06-14T05:33:25;10.20;;;5.30;;
18082;SDS011;9168;51.194;6.840;2023-06-14T05:35:52;17.30;;;5.28;;
18082;SDS011;9168;51.194;6.840;2023-06-14T05:38:19;22.48;;;5.82;;
18082;SDS011;9168;51.194;6.840;2023-06-14T05:40:47;14.93;;;4.70;;
18082;SDS011;9168;51.194;6.840;2023-06-14T05:43:14;11.48;;;5.10;;
18082;SDS011;9168;51.194;6.840;2023-06-14T05:45:40;14.07;;;5.05;;
18082;SDS011;9168;51.194;6.840;2023-06-14T05:48:07;13.25;;;4.90;;
18082;SDS011;9168;51.194;6.840;2023-06-14T05:50:34;18.38;;;5.80;;
18082;SDS011;9168;51.194;6.840;2023-06-14T05:53:01;11.07;;;4.38;;
18082;SDS011;9168;51.194;6.840;2023-06-14T05:55:28;11.25;;;4.93;;
18082;SDS011;9168;51.194;6.840;2023-06-14T05:57:57;16.30;;;5.20;;
18082;SDS011;9168;51.194;6.840;2023-06-14T06:00:24;14.45;;;4.57;;
18082;SDS011;9168;51.194;6.840;2023-06-14T06:02:51;11.18;;;4.82;;
18082;SDS011;9168;51.194;6.840;2023-06-14T06:05:18;11.35;;;4.70;;
18082;SDS011;9168;51.194;6.840;2023-06-14T06:07:45;15.68;;;5.00;;
18082;SDS011;9168;51.194;6.840;2023-06-14T06:10:13;11.02;;;4.82;;
18082;SDS011;9168;51.194;6.840;2023-06-14T06:12:40;15.80;;;4.82;;
18082;SDS011;9168;51.194;6.840;2023-06-14T06:15:09;10.68;;;4.47;;
18082;SDS011;9168;51.194;6.840;2023-06-14T06:17:37;13.82;;;5.18;;
18082;SDS011;9168;51.194;6.840;2023-06-14T06:20:04;17.65;;;4.75;;
18082;SDS011;9168;51.194;6.840;2023-06-14T06:22:33;10.07;;;4.30;;
18082;SDS011;9168;51.194;6.840;2023-06-14T06:25:00;8.65;;;4.03;;
18082;SDS011;9168;51.194;6.840;2023-06-14T06:27:27;18.48;;;4.40;;
18082;SDS011;9168;51.194;6.840;2023-06-14T06:29:54;27.30;;;5.30;;
18082;SDS011;9168;51.194;6.840;2023-06-14T06:32:22;13.75;;;4.63;;
18082;SDS011;9168;51.194;6.840;2023-06-14T06:34:49;18.35;;;4.47;;
18082;SDS011;9168;51.194;6.840;2023-06-14T06:37:16;12.10;;;3.83;;
18082;SDS011;9168;51.194;6.840;2023-06-14T06:39:43;13.98;;;4.07;;
18082;SDS011;9168;51.194;6.840;2023-06-14T06:42:11;11.00;;;4.45;;
18082;SDS011;9168;51.194;6.840;2023-06-14T06:44:38;19.08;;;4.10;;
18082;SDS011;9168;51.194;6.840;2023-06-14T06:47:05;12.05;;;3.97;;
18082;SDS011;9168;51.194;6.840;2023-06-14T06:49:34;12.25;;;4.20;;
18082;SDS011;9168;51.194;6.840;2023-06-14T06:52:01;11.95;;;3.90;;
18082;SDS011;9168;51.194;6.840;2023-06-14T06:54:29;6.20;;;3.55;;
18082;SDS011;9168;51.194;6.840;2023-06-14T06:56:56;10.95;;;3.65;;
18082;SDS011;9168;51.194;6.840;2023-06-14T06:59:23;15.18;;;4.10;;
18082;SDS011;9168;51.194;6.840;2023-06-14T07:01:50;15.77;;;3.80;;
18082;SDS011;9168;51.194;6.840;2023-06-14T07:04:17;12.45;;;3.70;;
18082;SDS011;9168;51.194;6.840;2023-06-14T07:06:45;9.63;;;3.22;;
18082;SDS011;9168;51.194;6.840;2023-06-14T07:09:13;6.25;;;3.00;;
18082;SDS011;9168;51.194;6.840;2023-06-14T07:11:41;9.27;;;3.03;;
18082;SDS011;9168;51.194;6.840;2023-06-14T07:14:09;6.70;;;3.00;;
18082;SDS011;9168;51.194;6.840;2023-06-14T07:16:36;14.05;;;3.03;;
18082;SDS011;9168;51.194;6.840;2023-06-14T07:19:03;17.08;;;3.70;;
18082;SDS011;9168;51.194;6.840;2023-06-14T07:21:30;14.00;;;2.80;;
18082;SDS011;9168;51.194;6.840;2023-06-14T07:23:58;9.13;;;3.00;;
18082;SDS011;9168;51.194;6.840;2023-06-14T07:26:25;16.95;;;4.18;;
18082;SDS011;9168;51.194;6.840;2023-06-14T07:28:52;51.10;;;6.15;;
18082;SDS011;9168;51.194;6.840;2023-06-14T07:31:19;97.20;;;9.63;;
18082;SDS011;9168;51.194;6.840;2023-06-14T07:33:46;61.17;;;6.10;;
18082;SDS011;9168;51.194;6.840;2023-06-14T07:36:13;16.58;;;3.53;;
18082;SDS011;9168;51.194;6.840;2023-06-14T07:38:40;6.72;;;2.90;;
18082;SDS011;9168;51.194;6.840;2023-06-14T07:41:08;12.63;;;3.17;;
18082;SDS011;9168;51.194;6.840;2023-06-14T07:43:35;17.20;;;3.53;;
18082;SDS011;9168;51.194;6.840;2023-06-14T07:46:02;15.10;;;3.45;;
18082;SDS011;9168;51.194;6.840;2023-06-14T07:48:29;9.88;;;3.22;;
18082;SDS011;9168;51.194;6.840;2023-06-14T07:50:56;8.25;;;2.75;;
18082;SDS011;9168;51.194;6.840;2023-06-14T07:53:23;7.47;;;2.50;;
18082;SDS011;9168;51.194;6.840;2023-06-14T07:55:49;46.50;;;5.03;;
18082;SDS011;9168;51.194;6.840;2023-06-14T07:58:18;47.00;;;5.65;;
18082;SDS011;9168;51.194;6.840;2023-06-14T08:00:45;10.05;;;3.10;;
18082;SDS011;9168;51.194;6.840;2023-06-14T08:03:14;7.22;;;2.55;;
18082;SDS011;9168;51.194;6.840;2023-06-14T08:05:42;8.15;;;2.72;;
18082;SDS011;9168;51.194;6.840;2023-06-14T08:08:09;8.63;;;2.28;;
18082;SDS011;9168;51.194;6.840;2023-06-14T08:10:36;6.05;;;2.30;;
18082;SDS011;9168;51.194;6.840;2023-06-14T08:13:02;7.60;;;2.60;;
18082;SDS011;9168;51.194;6.840;2023-06-14T08:15:31;7.18;;;2.40;;
18082;SDS011;9168;51.194;6.840;2023-06-14T08:17:58;5.72;;;2.33;;
18082;SDS011;9168;51.194;6.840;2023-06-14T08:20:26;5.10;;;2.50;;
18082;SDS011;9168;51.194;6.840;2023-06-14T08:22:55;5.75;;;2.38;;
18082;SDS011;9168;51.194;6.840;2023-06-14T08:25:22;5.07;;;2.65;;
18082;SDS011;9168;51.194;6.840;2023-06-14T08:27:49;7.60;;;2.58;;
18082;SDS011;9168;51.194;6.840;2023-06-14T08:30:16;8.65;;;2.55;;
18082;SDS011;9168;51.194;6.840;2023-06-14T08:32:44;6.05;;;2.20;;
18082;SDS011;9168;51.194;6.840;2023-06-14T08:35:11;10.55;;;2.67;;
18082;SDS011;9168;51.194;6.840;2023-06-14T08:37:39;4.50;;;2.30;;
18082;SDS011;9168;51.194;6.840;2023-06-14T08:40:07;5.78;;;2.58;;
18082;SDS011;9168;51.194;6.840;2023-06-14T08:42:45;8.68;;;2.40;;
18082;SDS011;9168;51.194;6.840;2023-06-14T08:45:16;4.35;;;2.55;;
18082;SDS011;9168;51.194;6.840;2023-06-14T08:47:44;6.95;;;2.60;;
18082;SDS011;9168;51.194;6.840;2023-06-14T08:50:18;12.50;;;2.80;;
18082;SDS011;9168;51.194;6.840;2023-06-14T08:52:50;9.80;;;2.50;;
18082;SDS011;9168;51.194;6.840;2023-06-14T08:55:22;4.00;;;2.20;;
18082;SDS011;9168;51.194;6.840;2023-06-14T08:57:52;8.45;;;2.60;;
18082;SDS011;9168;51.194;6.840;2023-06-14T09:00:20;5.13;;;2.40;;
18082;SDS011;9168;51.194;6.840;2023-06-14T09:02:50;6.78;;;2.38;;
18082;SDS011;9168;51.194;6.840;2023-06-14T09:05:22;6.97;;;2.50;;
18082;SDS011;9168;51.194;6.840;2023-06-14T09:07:50;7.78;;;2.55;;
18082;SDS011;9168;51.194;6.840;2023-06-14T09:10:18;15.07;;;2.63;;
18082;SDS011;9168;51.194;6.840;2023-06-14T09:12:46;6.00;;;2.30;;
18082;SDS011;9168;51.194;6.840;2023-06-14T09:15:13;6.05;;;2.50;;
18082;SDS011;9168;51.194;6.840;2023-06-14T09:17:40;7.45;;;2.63;;
18082;SDS011;9168;51.194;6.840;2023-06-14T09:20:09;6.63;;;2.10;;
18082;SDS011;9168;51.194;6.840;2023-06-14T09:22:38;10.15;;;2.30;;
18082;SDS011;9168;51.194;6.840;2023-06-14T09:25:06;5.30;;;2.00;;
18082;SDS011;9168;51.194;6.840;2023-06-14T09:27:34;13.18;;;2.33;;
18082;SDS011;9168;51.194;6.840;2023-06-14T09:30:01;10.27;;;2.17;;
18082;SDS011;9168;51.194;6.840;2023-06-14T09:32:29;10.35;;;2.45;;
18082;SDS011;9168;51.194;6.840;2023-06-14T09:34:55;7.93;;;2.05;;
18082;SDS011;9168;51.194;6.840;2023-06-14T09:37:27;10.20;;;2.08;;
18082;SDS011;9168;51.194;6.840;2023-06-14T09:39:55;18.35;;;2.60;;
18082;SDS011;9168;51.194;6.840;2023-06-14T09:42:23;10.57;;;2.47;;
18082;SDS011;9168;51.194;6.840;2023-06-14T09:44:51;7.57;;;1.80;;
18082;SDS011;9168;51.194;6.840;2023-06-14T09:47:19;14.05;;;2.30;;
18082;SDS011;9168;51.194;6.840;2023-06-14T09:49:46;9.20;;;2.30;;
18082;SDS011;9168;51.194;6.840;2023-06-14T09:52:14;5.85;;;1.90;;
18082;SDS011;9168;51.194;6.840;2023-06-14T09:54:43;8.23;;;2.42;;
18082;SDS011;9168;51.194;6.840;2023-06-14T09:57:13;9.43;;;2.30;;
18082;SDS011;9168;51.194;6.840;2023-06-14T09:59:41;8.35;;;2.28;;
18082;SDS011;9168;51.194;6.840;2023-06-14T10:02:10;8.40;;;2.50;;
18082;SDS011;9168;51.194;6.840;2023-06-14T10:04:40;6.72;;;2.20;;
18082;SDS011;9168;51.194;6.840;2023-06-14T10:07:13;7.25;;;2.10;;
18082;SDS011;9168;51.194;6.840;2023-06-14T10:09:46;11.70;;;2.53;;
18082;SDS011;9168;51.194;6.840;2023-06-14T10:12:15;10.23;;;2.45;;
18082;SDS011;9168;51.194;6.840;2023-06-14T10:14:46;6.35;;;2.63;;
18082;SDS011;9168;51.194;6.840;2023-06-14T10:17:17;5.65;;;2.20;;
18082;SDS011;9168;51.194;6.840;2023-06-14T10:19:53;6.38;;;2.40;;
18082;SDS011;9168;51.194;6.840;2023-06-14T10:22:24;2.92;;;2.35;;
18082;SDS011;9168;51.194;6.840;2023-06-14T10:24:58;10.77;;;2.45;;
18082;SDS011;9168;51.194;6.840;2023-06-14T10:27:26;5.43;;;2.50;;
18082;SDS011;9168;51.194;6.840;2023-06-14T10:30:02;5.78;;;2.30;;
18082;SDS011;9168;51.194;6.840;2023-06-14T10:32:32;3.90;;;2.30;;
18082;SDS011;9168;51.194;6.840;2023-06-14T10:35:00;6.13;;;2.28;;
18082;SDS011;9168;51.194;6.840;2023-06-14T10:37:30;10.02;;;2.50;;
18082;SDS011;9168;51.194;6.840;2023-06-14T10:39:58;8.68;;;2.58;;
18082;SDS011;9168;51.194;6.840;2023-06-14T10:42:27;6.47;;;2.63;;
18082;SDS011;9168;51.194;6.840;2023-06-14T10:44:58;7.53;;;2.20;;
18082;SDS011;9168;51.194;6.840;2023-06-14T10:47:26;7.85;;;2.67;;
18082;SDS011;9168;51.194;6.840;2023-06-14T10:49:54;5.82;;;2.63;;
18082;SDS011;9168;51.194;6.840;2023-06-14T10:52:23;12.75;;;2.58;;
18082;SDS011;9168;51.194;6.840;2023-06-14T10:55:01;8.88;;;2.60;;
18082;SDS011;9168;51.194;6.840;2023-06-14T10:57:34;6.65;;;2.40;;
18082;SDS011;9168;51.194;6.840;2023-06-14T11:00:03;6.97;;;2.83;;
18082;SDS011;9168;51.194;6.840;2023-06-14T11:05:49;6.05;;;2.47;;
18082;SDS011;9168;51.194;6.840;2023-06-14T11:08:27;11.40;;;2.75;;
18082;SDS011;9168;51.194;6.840;2023-06-14T11:11:08;10.30;;;3.33;;
18082;SDS011;9168;51.194;6.840;2023-06-14T11:13:37;5.72;;;2.60;;
18082;SDS011;9168;51.194;6.840;2023-06-14T11:16:09;11.18;;;3.08;;
18082;SDS011;9168;51.194;6.840;2023-06-14T11:18:36;7.65;;;2.58;;
18082;SDS011;9168;51.194;6.840;2023-06-14T11:21:03;9.00;;;2.80;;
18082;SDS011;9168;51.194;6.840;2023-06-14T11:23:30;4.25;;;2.90;;
18082;SDS011;9168;51.194;6.840;2023-06-14T11:25:57;6.53;;;2.60;;
18082;SDS011;9168;51.194;6.840;2023-06-14T11:28:25;8.10;;;2.65;;
18082;SDS011;9168;51.194;6.840;2023-06-14T11:31:03;4.68;;;2.45;;
18082;SDS011;9168;51.194;6.840;2023-06-14T11:33:30;8.98;;;2.85;;
18082;SDS011;9168;51.194;6.840;2023-06-14T11:35:57;12.35;;;3.15;;
18082;SDS011;9168;51.194;6.840;2023-06-14T11:38:24;7.45;;;3.00;;
18082;SDS011;9168;51.194;6.840;2023-06-14T11:40:51;15.45;;;3.22;;
18082;SDS011;9168;51.194;6.840;2023-06-14T11:43:18;10.88;;;2.92;;
18082;SDS011;9168;51.194;6.840;2023-06-14T11:45:49;9.20;;;2.80;;
18082;SDS011;9168;51.194;6.840;2023-06-14T11:48:16;13.32;;;2.67;;
18082;SDS011;9168;51.194;6.840;2023-06-14T11:50:43;6.80;;;2.67;;
18082;SDS011;9168;51.194;6.840;2023-06-14T11:53:10;9.63;;;3.05;;
18082;SDS011;9168;51.194;6.840;2023-06-14T11:55:38;13.48;;;2.97;;
18082;SDS011;9168;51.194;6.840;2023-06-14T11:58:06;8.13;;;2.55;;
18082;SDS011;9168;51.194;6.840;2023-06-14T12:00:35;6.25;;;2.72;;
18082;SDS011;9168;51.194;6.840;2023-06-14T12:03:03;5.80;;;2.55;;
18082;SDS011;9168;51.194;6.840;2023-06-14T12:05:30;9.13;;;2.50;;
18082;SDS011;9168;51.194;6.840;2023-06-14T12:07:59;6.88;;;2.63;;
18082;SDS011;9168;51.194;6.840;2023-06-14T12:10:27;12.85;;;2.70;;
18082;SDS011;9168;51.194;6.840;2023-06-14T12:12:58;10.40;;;2.80;;
18082;SDS011;9168;51.194;6.840;2023-06-14T12:15:27;10.48;;;2.70;;
18082;SDS011;9168;51.194;6.840;2023-06-14T12:17:55;8.85;;;2.30;;
18082;SDS011;9168;51.194;6.840;2023-06-14T12:20:28;10.35;;;2.80;;
18082;SDS011;9168;51.194;6.840;2023-06-14T12:22:57;9.35;;;2.88;;
18082;SDS011;9168;51.194;6.840;2023-06-14T12:25:26;7.82;;;2.42;;
18082;SDS011;9168;51.194;6.840;2023-06-14T12:27:56;12.98;;;2.90;;
18082;SDS011;9168;51.194;6.840;2023-06-14T12:30:23;8.93;;;2.70;;
18082;SDS011;9168;51.194;6.840;2023-06-14T12:32:50;10.80;;;2.67;;
18082;SDS011;9168;51.194;6.840;2023-06-14T12:35:17;5.13;;;2.58;;
18082;SDS011;9168;51.194;6.840;2023-06-14T12:37:46;7.65;;;2.30;;
18082;SDS011;9168;51.194;6.840;2023-06-14T12:40:13;7.70;;;2.63;;
18082;SDS011;9168;51.194;6.840;2023-06-14T12:42:40;3.20;;;2.35;;
18082;SDS011;9168;51.194;6.840;2023-06-14T12:45:08;16.73;;;3.00;;
18082;SDS011;9168;51.194;6.840;2023-06-14T12:47:36;8.73;;;2.70;;
18082;SDS011;9168;51.194;6.840;2023-06-14T12:50:03;9.82;;;2.60;;
18082;SDS011;9168;51.194;6.840;2023-06-14T12:52:31;2.80;;;2.25;;
18082;SDS011;9168;51.194;6.840;2023-06-14T12:55:02;7.45;;;2.60;;
18082;SDS011;9168;51.194;6.840;2023-06-14T12:57:29;5.20;;;2.45;;
18082;SDS011;9168;51.194;6.840;2023-06-14T12:59:56;15.07;;;3.00;;
18082;SDS011;9168;51.194;6.840;2023-06-14T13:02:23;13.63;;;3.30;;
18082;SDS011;9168;51.194;6.840;2023-06-14T13:04:50;7.28;;;2.80;;
18082;SDS011;9168;51.194;6.840;2023-06-14T13:07:17;11.75;;;2.80;;
18082;SDS011;9168;51.194;6.840;2023-06-14T13:09:44;7.85;;;2.65;;
18082;SDS011;9168;51.194;6.840;2023-06-14T13:12:13;10.27;;;2.95;;
18082;SDS011;9168;51.194;6.840;2023-06-14T13:14:40;9.00;;;2.75;;
18082;SDS011;9168;51.194;6.840;2023-06-14T13:17:07;9.20;;;2.70;;
18082;SDS011;9168;51.194;6.840;2023-06-14T13:19:35;5.45;;;2.60;;
18082;SDS011;9168;51.194;6.840;2023-06-14T13:22:02;9.60;;;2.78;;
18082;SDS011;9168;51.194;6.840;2023-06-14T13:24:29;7.13;;;3.00;;
18082;SDS011;9168;51.194;6.840;2023-06-14T13:26:56;5.38;;;2.70;;
18082;SDS011;9168;51.194;6.840;2023-06-14T13:29:25;14.57;;;2.72;;
18082;SDS011;9168;51.194;6.840;2023-06-14T13:31:52;3.30;;;2.80;;
18082;SDS011;9168;51.194;6.840;2023-06-14T13:34:20;6.00;;;2.83;;
18082;SDS011;9168;51.194;6.840;2023-06-14T13:36:47;10.82;;;2.90;;
18082;SDS011;9168;51.194;6.840;2023-06-14T13:39:15;6.45;;;3.10;;
18082;SDS011;9168;51.194;6.840;2023-06-14T13:41:42;4.65;;;3.00;;
18082;SDS011;9168;51.194;6.840;2023-06-14T13:44:09;3.47;;;2.80;;
18082;SDS011;9168;51.194;6.840;2023-06-14T13:46:40;10.60;;;2.80;;
18082;SDS011;9168;51.194;6.840;2023-06-14T13:49:07;9.50;;;3.08;;
18082;SDS011;9168;51.194;6.840;2023-06-14T13:51:35;10.82;;;3.00;;
18082;SDS011;9168;51.194;6.840;2023-06-14T13:54:02;12.05;;;2.90;;
18082;SDS011;9168;51.194;6.840;2023-06-14T13:56:29;9.68;;;3.00;;
18082;SDS011;9168;51.194;6.840;2023-06-14T13:58:56;12.25;;;3.20;;
18082;SDS011;9168;51.194;6.840;2023-06-14T14:01:23;37.10;;;4.13;;
18082;SDS011;9168;51.194;6.840;2023-06-14T14:03:52;11.95;;;3.40;;
18082;SDS011;9168;51.194;6.840;2023-06-14T14:06:19;13.15;;;3.10;;
18082;SDS011;9168;51.194;6.840;2023-06-14T14:08:45;13.45;;;3.22;;
18082;SDS011;9168;51.194;6.840;2023-06-14T14:11:12;6.07;;;2.90;;
18082;SDS011;9168;51.194;6.840;2023-06-14T14:13:41;7.07;;;3.13;;
18082;SDS011;9168;51.194;6.840;2023-06-14T14:16:08;11.07;;;2.97;;
18082;SDS011;9168;51.194;6.840;2023-06-14T14:18:35;13.02;;;3.63;;
18082;SDS011;9168;51.194;6.840;2023-06-14T14:21:04;4.78;;;3.08;;
18082;SDS011;9168;51.194;6.840;2023-06-14T14:23:31;5.53;;;2.90;;
18082;SDS011;9168;51.194;6.840;2023-06-14T14:25:58;11.30;;;3.47;;
18082;SDS011;9168;51.194;6.840;2023-06-14T14:28:26;9.07;;;3.22;;
18082;SDS011;9168;51.194;6.840;2023-06-14T14:30:52;10.43;;;3.25;;
18082;SDS011;9168;51.194;6.840;2023-06-14T14:33:20;7.90;;;3.40;;
18082;SDS011;9168;51.194;6.840;2023-06-14T14:35:47;14.15;;;3.70;;
18082;SDS011;9168;51.194;6.840;2023-06-14T14:38:15;6.72;;;2.95;;
18082;SDS011;9168;51.194;6.840;2023-06-14T14:40:42;6.40;;;3.28;;
18082;SDS011;9168;51.194;6.840;2023-06-14T14:43:09;6.93;;;3.10;;
18082;SDS011;9168;51.194;6.840;2023-06-14T14:45:36;8.73;;;3.00;;
18082;SDS011;9168;51.194;6.840;2023-06-14T14:48:03;5.60;;;3.22;;
18082;SDS011;9168;51.194;6.840;2023-06-14T14:50:31;5.93;;;3.03;;
18082;SDS011;9168;51.194;6.840;2023-06-14T14:52:59;7.00;;;3.10;;
18082;SDS011;9168;51.194;6.840;2023-06-14T14:55:27;13.07;;;3.10;;
18082;SDS011;9168;51.194;6.840;2023-06-14T14:57:55;8.80;;;2.85;;
18082;SDS011;9168;51.194;6.840;2023-06-14T15:00:22;5.80;;;2.90;;